createdAt,value
2017-10-19T00:00:56.661Z,10.33
2017-10-19T00:02:08.918Z,10.42
2017-10-19T00:03:21.177Z,10.39
2017-10-19T00:04:33.749Z,10.39
2017-10-19T00:05:46.030Z,10.3
2017-10-19T00:06:58.589Z,10.33
2017-10-19T00:08:11.460Z,10.3
2017-10-19T00:09:23.704Z,10.3
2017-10-19T00:10:35.652Z,10.38
2017-10-19T00:11:47.897Z,10.36
2017-10-19T00:13:00.142Z,10.3
2017-10-19T00:14:12.412Z,10.34
2017-10-19T00:15:24.658Z,10.39
2017-10-19T00:16:37.261Z,10.34
2017-10-19T00:17:49.826Z,10.24
2017-10-19T00:19:02.671Z,10.33
2017-10-19T00:20:15.241Z,10.33
2017-10-19T00:21:27.812Z,10.31
2017-10-19T00:22:40.382Z,10.3
2017-10-19T00:23:52.654Z,10.24
2017-10-19T00:25:05.231Z,10.3
2017-10-19T00:26:17.794Z,10.34
2017-10-19T00:27:30.041Z,10.33
2017-10-19T00:28:42.610Z,10.27
2017-10-19T00:29:54.856Z,10.31
2017-10-19T00:31:07.126Z,10.28
2017-10-19T00:32:19.372Z,10.3
2017-10-19T00:33:31.948Z,10.24
2017-10-19T00:34:44.531Z,10.34
2017-10-19T00:35:56.785Z,10.27
2017-10-19T00:37:09.355Z,10.28
2017-10-19T00:38:21.925Z,10.33
2017-10-19T00:39:34.497Z,10.31
2017-10-19T00:40:46.417Z,10.3
2017-10-19T00:41:59.014Z,10.27
2017-10-19T00:43:11.583Z,10.25
2017-10-19T00:44:24.153Z,10.3
2017-10-19T00:45:36.421Z,10.31
2017-10-19T00:46:48.996Z,10.28
2017-10-19T00:48:01.541Z,10.24
2017-10-19T00:49:14.110Z,10.25
2017-10-19T00:50:26.657Z,10.27
2017-10-19T00:51:39.528Z,10.17
2017-10-19T00:52:52.099Z,10.18
2017-10-19T00:54:04.019Z,10.17
2017-10-19T00:55:16.589Z,10.13
2017-10-19T00:56:28.527Z,10.07
2017-10-19T00:57:40.460Z,10.2
2017-10-19T00:58:52.702Z,10.21
2017-10-19T01:00:05.271Z,10.15
2017-10-19T01:01:17.843Z,10.15
2017-10-19T01:02:30.088Z,10.15
2017-10-19T01:03:42.309Z,10.18
2017-10-19T01:04:54.879Z,10.13
2017-10-19T01:06:06.801Z,10.09
2017-10-19T01:07:19.050Z,10.1
2017-10-19T01:08:31.617Z,10.07
2017-10-19T01:09:44.190Z,10.09
2017-10-19T01:10:56.794Z,10.1
2017-10-19T01:12:09.354Z,10.06
2017-10-19T01:13:21.625Z,9.99
2017-10-19T01:14:33.869Z,9.99
2017-10-19T01:15:46.101Z,9.94
2017-10-19T01:16:58.683Z,9.95
2017-10-19T01:18:10.956Z,10.03
2017-10-19T01:19:23.528Z,9.99
2017-10-19T01:20:35.773Z,10
2017-10-19T01:21:48.018Z,10
2017-10-19T01:23:00.264Z,10.03
2017-10-19T01:24:13.135Z,10
2017-10-19T01:25:25.706Z,9.95
2017-10-19T01:26:37.952Z,9.92
2017-10-19T01:27:50.521Z,9.91
2017-10-19T01:29:02.793Z,9.94
2017-10-19T01:30:15.364Z,9.94
2017-10-19T01:31:27.652Z,9.87
2017-10-19T01:32:40.228Z,9.9
2017-10-19T01:33:52.806Z,9.87
2017-10-19T01:35:05.654Z,9.87
2017-10-19T01:36:18.216Z,9.87
2017-10-19T01:37:30.813Z,9.88
2017-10-19T01:38:42.732Z,9.84
2017-10-19T01:39:54.978Z,9.77
2017-10-19T01:41:07.223Z,9.81
2017-10-19T01:42:19.470Z,9.8
2017-10-19T01:43:32.041Z,9.82
2017-10-19T01:44:44.286Z,9.76
2017-10-19T01:45:56.858Z,9.74
2017-10-19T01:47:09.101Z,9.7
2017-10-19T01:48:21.647Z,9.76
2017-10-19T01:49:34.218Z,9.77
2017-10-19T01:50:46.790Z,9.7
2017-10-19T01:51:59.361Z,9.74
2017-10-19T01:53:11.610Z,9.74
2017-10-19T01:54:23.877Z,9.73
2017-10-19T01:55:35.490Z,9.7
2017-10-19T01:56:47.717Z,9.7
2017-10-19T01:58:00.289Z,9.66
2017-10-19T01:59:12.859Z,9.76
2017-10-19T02:00:25.106Z,9.7
2017-10-19T02:01:37.649Z,9.69
2017-10-19T02:02:50.225Z,9.63
2017-10-19T02:04:02.474Z,9.62
2017-10-19T02:05:15.061Z,9.7
2017-10-19T02:06:27.633Z,9.64
2017-10-19T02:07:40.203Z,9.62
2017-10-19T02:08:52.442Z,9.56
2017-10-19T02:10:04.996Z,9.59
2017-10-19T02:11:17.566Z,9.62
2017-10-19T02:12:29.486Z,9.56
2017-10-19T02:13:41.733Z,9.56
2017-10-19T02:14:54.003Z,9.54
2017-10-19T02:16:06.248Z,9.51
2017-10-19T02:17:18.818Z,9.49
2017-10-19T02:18:31.692Z,9.49
2017-10-19T02:20:15.732Z,9.48
2017-10-19T02:21:28.304Z,9.45
2017-10-19T02:22:40.874Z,9.47
2017-10-19T02:23:53.695Z,9.44
2017-10-19T02:25:06.266Z,9.47
2017-10-19T02:26:18.861Z,9.45
2017-10-19T02:27:31.432Z,9.48
2017-10-19T02:28:43.995Z,9.4
2017-10-19T02:29:56.548Z,9.45
2017-10-19T02:31:08.819Z,9.33
2017-10-19T02:32:21.390Z,9.33
2017-10-19T02:33:33.311Z,9.34
2017-10-19T02:34:45.880Z,9.34
2017-10-19T02:35:58.146Z,9.31
2017-10-19T02:37:10.096Z,9.31
2017-10-19T02:38:22.018Z,9.34
2017-10-19T02:39:34.589Z,9.39
2017-10-19T02:40:46.859Z,9.3
2017-10-19T02:41:59.105Z,9.42
2017-10-19T02:43:11.677Z,9.36
2017-10-19T02:44:24.245Z,9.27
2017-10-19T02:45:36.817Z,9.3
2017-10-19T02:46:49.091Z,9.24
2017-10-19T02:48:01.658Z,9.31
2017-10-19T02:49:14.230Z,9.26
2017-10-19T02:50:26.802Z,9.24
2017-10-19T02:51:39.045Z,9.18
2017-10-19T02:52:51.590Z,9.26
2017-10-19T02:54:03.835Z,9.18
2017-10-19T02:55:16.082Z,9.19
2017-10-19T02:56:28.256Z,9.22
2017-10-19T02:57:40.523Z,9.22
2017-10-19T02:58:53.095Z,9.15
2017-10-19T03:00:05.682Z,9.19
2017-10-19T03:01:18.260Z,9.11
2017-10-19T03:02:31.130Z,9.18
2017-10-19T03:03:43.378Z,9.15
2017-10-19T03:04:55.622Z,9.18
2017-10-19T03:06:07.218Z,9.13
2017-10-19T03:07:19.463Z,9.15
2017-10-19T03:08:32.034Z,9.19
2017-10-19T03:09:44.606Z,9.15
2017-10-19T03:10:56.525Z,9.22
2017-10-19T03:12:09.099Z,9.12
2017-10-19T03:13:21.347Z,9.21
2017-10-19T03:14:33.912Z,9.16
2017-10-19T03:15:46.482Z,9.19
2017-10-19T03:16:59.053Z,9.18
2017-10-19T03:18:11.298Z,9.18
2017-10-19T03:19:23.546Z,9.16
2017-10-19T03:20:36.116Z,9.12
2017-10-19T03:21:48.686Z,9.16
2017-10-19T03:23:01.287Z,9.05
2017-10-19T03:24:14.152Z,9.09
2017-10-19T03:25:26.098Z,9
2017-10-19T03:26:38.019Z,8.97
2017-10-19T03:27:50.263Z,8.92
2017-10-19T03:29:03.085Z,8.93
2017-10-19T03:30:15.657Z,9.03
2017-10-19T03:31:27.902Z,8.99
2017-10-19T03:32:40.145Z,8.93
2017-10-19T03:33:52.392Z,9
2017-10-19T03:35:04.980Z,8.89
2017-10-19T03:36:17.533Z,8.89
2017-10-19T03:37:29.778Z,8.9
2017-10-19T03:38:42.025Z,8.9
2017-10-19T03:39:54.596Z,9.03
2017-10-19T03:41:06.842Z,8.95
2017-10-19T03:42:19.437Z,8.93
2017-10-19T03:43:32.007Z,8.93
2017-10-19T03:44:44.578Z,8.99
2017-10-19T03:45:56.524Z,8.78
2017-10-19T03:47:09.093Z,8.79
2017-10-19T03:48:21.316Z,8.84
2017-10-19T03:49:33.236Z,8.81
2017-10-19T03:50:45.807Z,8.78
2017-10-19T03:51:58.053Z,8.75
2017-10-19T03:53:09.990Z,8.77
2017-10-19T03:54:22.218Z,8.84
2017-10-19T03:55:34.489Z,8.81
2017-10-19T03:56:47.061Z,8.89
2017-10-19T03:57:59.630Z,8.75
2017-10-19T03:59:11.876Z,8.78
2017-10-19T04:00:24.139Z,8.81
2017-10-19T04:01:36.945Z,8.84
2017-10-19T04:02:49.188Z,8.79
2017-10-19T04:04:01.758Z,8.86
2017-10-19T04:05:13.721Z,8.79
2017-10-19T04:06:25.650Z,8.79
2017-10-19T04:07:37.570Z,8.77
2017-10-19T04:08:50.142Z,8.81
2017-10-19T04:10:02.714Z,8.81
2017-10-19T04:11:14.958Z,8.79
2017-10-19T04:12:27.545Z,8.77
2017-10-19T04:13:39.799Z,8.87
2017-10-19T04:14:52.045Z,8.74
2017-10-19T04:16:04.293Z,8.81
2017-10-19T04:17:16.536Z,8.82
2017-10-19T04:18:28.784Z,8.78
2017-10-19T04:19:40.701Z,8.81
2017-10-19T04:20:53.276Z,8.78
2017-10-19T04:22:05.842Z,8.79
2017-10-19T04:23:18.090Z,8.74
2017-10-19T04:24:30.335Z,8.77
2017-10-19T04:25:42.589Z,8.82
2017-10-19T04:26:54.526Z,8.78
2017-10-19T04:28:07.097Z,8.74
2017-10-19T04:29:19.674Z,8.81
2017-10-19T04:30:32.238Z,8.87
2017-10-19T04:31:44.808Z,8.82
2017-10-19T04:32:57.055Z,8.69
2017-10-19T04:34:09.625Z,8.79
2017-10-19T04:35:21.870Z,8.79
2017-10-19T04:36:34.440Z,8.77
2017-10-19T04:37:46.715Z,8.82
2017-10-19T04:38:58.656Z,8.74
2017-10-19T04:40:11.228Z,8.74
2017-10-19T04:41:23.800Z,8.77
2017-10-19T04:42:36.370Z,8.78
2017-10-19T04:43:48.941Z,8.77
2017-10-19T04:45:00.886Z,8.81
2017-10-19T04:46:12.834Z,8.77
2017-10-19T04:47:25.076Z,8.77
2017-10-19T04:48:37.654Z,8.75
2017-10-19T04:49:50.217Z,8.63
2017-10-19T04:51:02.788Z,8.79
2017-10-19T04:52:15.052Z,8.74
2017-10-19T04:53:27.305Z,8.79
2017-10-19T04:54:39.867Z,8.75
2017-10-19T04:55:51.796Z,8.79
2017-10-19T04:57:04.365Z,8.78
2017-10-19T04:58:16.937Z,8.78
2017-10-19T04:59:28.564Z,8.77
2017-10-19T05:00:40.832Z,8.75
2017-10-19T05:01:53.400Z,8.77
2017-10-19T05:03:05.651Z,8.77
2017-10-19T05:04:17.894Z,8.79
2017-10-19T05:05:30.139Z,8.74
2017-10-19T05:06:42.738Z,8.75
2017-10-19T05:07:55.276Z,8.72
2017-10-19T05:09:07.215Z,8.68
2017-10-19T05:10:19.771Z,8.81
2017-10-19T05:11:32.339Z,8.77
2017-10-19T05:12:44.887Z,8.79
2017-10-19T05:13:57.455Z,8.79
2017-10-19T05:15:10.026Z,8.86
2017-10-19T05:16:22.595Z,8.82
2017-10-19T05:17:35.417Z,8.81
2017-10-19T05:18:47.664Z,8.79
2017-10-19T05:19:59.908Z,8.79
2017-10-19T05:21:12.147Z,8.87
2017-10-19T05:22:24.100Z,8.84
2017-10-19T05:23:36.021Z,8.9
2017-10-19T05:24:48.591Z,8.99
2017-10-19T05:26:00.839Z,8.93
2017-10-19T05:27:12.758Z,8.95
2017-10-19T05:28:25.333Z,9.05
2017-10-19T05:29:37.898Z,8.96
2017-10-19T05:30:50.472Z,9.09
2017-10-19T05:32:02.717Z,9.18
2017-10-19T05:33:15.286Z,9.11
2017-10-19T05:34:27.857Z,9.18
2017-10-19T05:35:40.144Z,9.22
2017-10-19T05:36:52.703Z,9.19
2017-10-19T05:38:05.294Z,9.27
2017-10-19T05:39:17.816Z,9.37
2017-10-19T05:40:30.086Z,9.42
2017-10-19T05:41:42.656Z,9.39
2017-10-19T05:42:55.226Z,9.51
2017-10-19T05:44:07.472Z,9.47
2017-10-19T05:45:20.044Z,9.44
2017-10-19T05:46:32.291Z,9.49
2017-10-19T05:47:44.884Z,9.62
2017-10-19T05:48:57.130Z,9.62
2017-10-19T05:50:09.375Z,9.69
2017-10-19T05:51:21.621Z,9.7
2017-10-19T05:52:33.867Z,9.77
2017-10-19T05:53:46.113Z,9.76
2017-10-19T05:54:58.358Z,9.76
2017-10-19T05:56:10.928Z,9.85
2017-10-19T05:57:23.192Z,9.91
2017-10-19T05:58:35.748Z,9.91
2017-10-19T05:59:48.315Z,9.92
2017-10-19T06:01:00.886Z,10.02
2017-10-19T06:02:12.806Z,9.99
2017-10-19T06:03:24.769Z,10.03
2017-10-19T06:04:37.022Z,10.07
2017-10-19T06:05:49.594Z,10.12
2017-10-19T06:07:02.165Z,10.12
2017-10-19T06:08:14.409Z,10.12
2017-10-19T06:09:26.674Z,10.23
2017-10-19T06:10:39.252Z,10.12
2017-10-19T06:11:51.171Z,10.13
2017-10-19T06:13:03.760Z,10.2
2017-10-19T06:14:16.339Z,10.25
2017-10-19T06:15:28.912Z,10.28
2017-10-19T06:16:41.172Z,10.34
2017-10-19T06:17:52.801Z,10.36
2017-10-19T06:19:05.370Z,10.33
2017-10-19T06:20:17.634Z,10.46
2017-10-19T06:21:30.218Z,10.36
2017-10-19T06:22:42.787Z,10.39
2017-10-19T06:23:55.046Z,10.42
2017-10-19T06:25:07.275Z,10.42
2017-10-19T06:26:19.844Z,10.43
2017-10-19T06:27:32.416Z,10.41
2017-10-19T06:28:44.660Z,10.51
2017-10-19T06:29:56.912Z,10.53
2017-10-19T06:31:08.828Z,10.55
2017-10-19T06:32:21.082Z,10.61
2017-10-19T06:33:33.022Z,10.67
2017-10-19T06:34:45.590Z,10.61
2017-10-19T06:35:57.509Z,10.72
2017-10-19T06:37:09.755Z,10.67
2017-10-19T06:38:22.327Z,10.69
2017-10-19T06:39:34.880Z,10.76
2017-10-19T06:40:47.143Z,10.76
2017-10-19T06:41:59.406Z,10.79
2017-10-19T06:43:11.339Z,10.77
2017-10-19T06:44:23.905Z,10.8
2017-10-19T06:45:36.476Z,10.8
2017-10-19T06:46:49.047Z,10.75
2017-10-19T06:48:01.617Z,10.75
2017-10-19T06:49:13.866Z,10.75
2017-10-19T06:50:26.458Z,10.71
2017-10-19T06:51:39.028Z,10.84
2017-10-19T06:52:51.600Z,10.79
2017-10-19T06:54:03.845Z,10.83
2017-10-19T06:55:16.416Z,10.86
2017-10-19T06:56:28.704Z,10.84
2017-10-19T06:57:41.282Z,10.94
2017-10-19T06:58:53.857Z,10.83
2017-10-19T07:00:06.123Z,10.94
2017-10-19T07:01:18.061Z,10.87
2017-10-19T07:02:29.988Z,10.87
2017-10-19T07:03:41.934Z,11
2017-10-19T07:04:53.860Z,10.92
2017-10-19T07:06:06.427Z,10.89
2017-10-19T07:07:18.672Z,10.97
2017-10-19T07:08:31.269Z,11.01
2017-10-19T07:09:43.839Z,11
2017-10-19T07:10:56.388Z,11.08
2017-10-19T07:12:08.956Z,11.08
2017-10-19T07:13:21.526Z,11.15
2017-10-19T07:14:33.770Z,11.12
2017-10-19T07:15:46.317Z,11.2
2017-10-19T07:16:57.941Z,11.19
2017-10-19T07:18:10.534Z,11.26
2017-10-19T07:19:23.104Z,11.27
2017-10-19T07:20:35.674Z,11.37
2017-10-19T07:21:47.920Z,11.38
2017-10-19T07:23:00.491Z,11.38
2017-10-19T07:24:12.737Z,11.35
2017-10-19T07:25:25.310Z,11.37
2017-10-19T07:26:37.553Z,11.51
2017-10-19T07:27:49.798Z,11.49
2017-10-19T07:29:02.393Z,11.45
2017-10-19T07:30:14.339Z,11.55
2017-10-19T07:31:26.928Z,11.58
2017-10-19T07:32:39.481Z,11.65
2017-10-19T07:33:52.053Z,11.58
2017-10-19T07:35:04.626Z,11.58
2017-10-19T07:36:15.917Z,11.65
2017-10-19T07:37:28.489Z,11.65
2017-10-19T07:38:41.077Z,11.62
2017-10-19T07:39:53.346Z,11.6
2017-10-19T07:41:05.903Z,11.74
2017-10-19T07:42:18.146Z,11.76
2017-10-19T07:43:30.719Z,11.76
2017-10-19T07:44:43.287Z,11.74
2017-10-19T07:45:55.875Z,11.76
2017-10-19T07:47:07.804Z,11.74
2017-10-19T07:48:19.725Z,11.78
2017-10-19T07:49:31.644Z,11.81
2017-10-19T07:50:43.265Z,11.86
2017-10-19T07:51:55.214Z,11.89
2017-10-19T07:53:07.786Z,11.89
2017-10-19T07:54:19.728Z,11.85
2017-10-19T07:55:32.298Z,12
2017-10-19T07:56:44.544Z,12.03
2017-10-19T07:57:57.115Z,12.05
2017-10-19T07:59:09.361Z,12.08
2017-10-19T08:00:21.636Z,12.2
2017-10-19T08:01:33.905Z,12.15
2017-10-19T08:02:46.147Z,12.26
2017-10-19T08:03:58.721Z,12.26
2017-10-19T08:05:10.971Z,12.32
2017-10-19T08:06:22.909Z,12.39
2017-10-19T08:07:34.855Z,12.45
2017-10-19T08:08:47.424Z,12.36
2017-10-19T08:09:59.671Z,12.43
2017-10-19T08:11:11.965Z,12.54
2017-10-19T08:12:24.537Z,12.4
2017-10-19T08:13:37.107Z,12.45
2017-10-19T08:14:49.679Z,12.37
2017-10-19T08:16:01.924Z,12.51
2017-10-19T08:17:14.195Z,12.55
2017-10-19T08:18:26.764Z,12.55
2017-10-19T08:19:39.336Z,12.62
2017-10-19T08:20:50.960Z,12.55
2017-10-19T08:22:03.545Z,12.68
2017-10-19T08:23:15.798Z,12.66
2017-10-19T08:24:28.068Z,12.62
2017-10-19T08:25:39.989Z,12.63
2017-10-19T08:26:52.236Z,12.65
2017-10-19T08:28:04.806Z,12.69
2017-10-19T08:29:17.082Z,12.69
2017-10-19T08:30:29.652Z,12.63
2017-10-19T08:31:41.892Z,12.73
2017-10-19T08:32:54.156Z,12.69
2017-10-19T08:34:06.726Z,12.8
2017-10-19T08:35:19.308Z,12.76
2017-10-19T08:36:31.950Z,12.78
2017-10-19T08:37:44.215Z,12.75
2017-10-19T08:38:56.768Z,12.83
2017-10-19T08:40:09.014Z,12.86
2017-10-19T08:41:21.283Z,12.86
2017-10-19T08:42:33.545Z,12.95
2017-10-19T08:43:46.123Z,12.94
2017-10-19T08:44:58.369Z,12.94
2017-10-19T08:46:10.316Z,13.01
2017-10-19T08:47:22.906Z,13.03
2017-10-19T08:48:34.857Z,13.02
2017-10-19T08:49:47.428Z,13.08
2017-10-19T08:50:59.998Z,13.12
2017-10-19T08:52:11.944Z,13.19
2017-10-19T08:53:24.207Z,13.17
2017-10-19T08:54:36.760Z,13.26
2017-10-19T08:55:49.330Z,13.27
2017-10-19T08:57:01.575Z,13.33
2017-10-19T08:58:13.497Z,13.36
2017-10-19T08:59:26.067Z,13.37
2017-10-19T09:00:38.314Z,13.45
2017-10-19T09:01:50.883Z,13.52
2017-10-19T09:03:03.130Z,13.52
2017-10-19T09:04:15.701Z,13.57
2017-10-19T09:05:27.995Z,13.57
2017-10-19T09:06:40.584Z,13.5
2017-10-19T09:07:52.838Z,13.55
2017-10-19T09:09:05.432Z,13.65
2017-10-19T09:10:18.003Z,13.61
2017-10-19T09:11:30.599Z,13.73
2017-10-19T09:12:42.546Z,13.67
2017-10-19T09:13:55.164Z,13.64
2017-10-19T09:15:07.435Z,13.65
2017-10-19T09:16:20.007Z,13.71
2017-10-19T09:17:32.270Z,13.68
2017-10-19T09:18:44.522Z,13.71
2017-10-19T09:19:57.093Z,13.79
2017-10-19T09:21:08.688Z,13.73
2017-10-19T09:22:20.619Z,13.82
2017-10-19T09:23:32.857Z,13.8
2017-10-19T09:24:44.793Z,13.79
2017-10-19T09:25:56.722Z,13.91
2017-10-19T09:27:08.987Z,13.85
2017-10-19T09:28:21.536Z,13.89
2017-10-19T09:29:34.100Z,14
2017-10-19T09:30:46.347Z,13.95
2017-10-19T09:31:58.899Z,14.03
2017-10-19T09:33:10.825Z,14.04
2017-10-19T09:34:23.092Z,14.08
2017-10-19T09:35:35.661Z,14.07
2017-10-19T09:36:48.232Z,14.11
2017-10-19T09:38:00.729Z,14.15
2017-10-19T09:39:12.979Z,14.2
2017-10-19T09:40:25.221Z,14.19
2017-10-19T09:41:37.466Z,14.13
2017-10-19T09:42:50.036Z,14.23
2017-10-19T09:44:02.307Z,14.3
2017-10-19T09:45:13.928Z,14.28
2017-10-19T09:46:26.500Z,14.41
2017-10-19T09:47:39.086Z,14.43
2017-10-19T09:48:51.339Z,14.48
2017-10-19T09:50:03.914Z,14.45
2017-10-19T09:51:16.483Z,14.41
2017-10-19T09:52:28.400Z,14.49
2017-10-19T09:53:40.664Z,14.48
2017-10-19T09:54:52.925Z,14.44
2017-10-19T09:56:05.508Z,14.58
2017-10-19T09:57:17.435Z,14.48
2017-10-19T09:58:30.029Z,14.48
2017-10-19T09:59:42.602Z,14.41
2017-10-19T10:00:55.171Z,14.49
2017-10-19T10:02:07.447Z,14.48
2017-10-19T10:03:19.711Z,14.48
2017-10-19T10:04:31.956Z,14.53
2017-10-19T10:05:44.202Z,14.51
2017-10-19T10:06:56.424Z,14.61
2017-10-19T10:08:09.049Z,14.68
2017-10-19T10:09:21.314Z,14.67
2017-10-19T10:10:33.878Z,14.71
2017-10-19T10:11:46.504Z,14.68
2017-10-19T10:12:58.426Z,14.7
2017-10-19T10:14:10.349Z,14.78
2017-10-19T10:15:22.918Z,14.9
2017-10-19T10:16:35.163Z,14.74
2017-10-19T10:17:47.411Z,14.71
2017-10-19T10:18:59.980Z,14.87
2017-10-19T10:20:12.251Z,14.9
2017-10-19T10:21:24.189Z,14.9
2017-10-19T10:22:36.435Z,14.86
2017-10-19T10:23:49.039Z,14.93
2017-10-19T10:25:01.285Z,14.89
2017-10-19T10:26:13.204Z,14.86
2017-10-19T10:27:25.775Z,14.96
2017-10-19T10:28:38.025Z,14.97
2017-10-19T10:29:49.967Z,14.96
2017-10-19T10:31:02.538Z,15
2017-10-19T10:32:15.108Z,15.02
2017-10-19T10:33:27.352Z,15.04
2017-10-19T10:34:39.923Z,15.02
2017-10-19T10:35:52.494Z,15
2017-10-19T10:37:05.068Z,15.12
2017-10-19T10:38:17.327Z,15.11
2017-10-19T10:39:29.581Z,15.17
2017-10-19T10:40:42.152Z,15.11
2017-10-19T10:41:54.401Z,15.17
2017-10-19T10:43:06.975Z,15.27
2017-10-19T10:44:19.539Z,15.33
2017-10-19T10:45:32.109Z,15.27
2017-10-19T10:46:44.680Z,15.33
2017-10-19T10:47:57.250Z,15.35
2017-10-19T10:49:09.499Z,15.37
2017-10-19T10:50:22.068Z,15.27
2017-10-19T10:51:34.314Z,15.35
2017-10-19T10:52:46.589Z,15.32
2017-10-19T10:53:58.530Z,15.33
2017-10-19T10:55:10.774Z,15.3
2017-10-19T10:56:23.346Z,15.35
2017-10-19T10:57:35.267Z,15.37
2017-10-19T10:58:47.542Z,15.37
2017-10-19T11:00:00.101Z,15.39
2017-10-19T11:01:12.354Z,15.59
2017-10-19T11:02:24.300Z,15.55
2017-10-19T11:03:36.570Z,15.7
2017-10-19T11:04:49.140Z,15.7
2017-10-19T11:06:01.711Z,15.76
2017-10-19T11:07:13.332Z,15.85
2017-10-19T11:08:25.577Z,15.84
2017-10-19T11:09:38.165Z,15.9
2017-10-19T11:10:50.747Z,15.9
2017-10-19T11:12:03.313Z,15.92
2017-10-19T11:13:15.577Z,16.03
2017-10-19T11:14:27.829Z,16.03
2017-10-19T11:15:40.401Z,16.13
2017-10-19T11:16:52.963Z,16.13
2017-10-19T11:18:05.217Z,16.18
2017-10-19T11:19:17.490Z,16.26
2017-10-19T11:20:29.451Z,16.32
2017-10-19T11:21:41.753Z,16.18
2017-10-19T11:22:54.016Z,16.26
2017-10-19T11:24:06.588Z,16.28
2017-10-19T11:25:19.165Z,16.4
2017-10-19T11:26:31.412Z,16.37
2017-10-19T11:27:43.982Z,16.34
2017-10-19T11:28:56.560Z,16.32
2017-10-19T11:30:08.824Z,16.39
2017-10-19T11:31:21.071Z,16.34
2017-10-19T11:32:33.332Z,16.43
2017-10-19T11:33:45.261Z,16.5
2017-10-19T11:34:57.831Z,16.4
2017-10-19T11:36:10.102Z,16.46
2017-10-19T11:37:22.973Z,16.5
2017-10-19T11:38:35.542Z,16.51
2017-10-19T11:39:47.789Z,16.5
2017-10-19T11:41:00.363Z,16.57
2017-10-19T11:42:12.931Z,16.47
2017-10-19T11:43:25.176Z,16.44
2017-10-19T11:44:37.745Z,16.39
2017-10-19T11:45:49.993Z,16.47
2017-10-19T11:47:02.263Z,16.49
2017-10-19T11:48:14.508Z,16.43
2017-10-19T11:49:27.078Z,16.41
2017-10-19T11:50:39.030Z,16.4
2017-10-19T11:51:50.971Z,16.43
2017-10-19T11:53:03.541Z,16.54
2017-10-19T11:54:16.135Z,16.41
2017-10-19T11:55:28.382Z,16.41
2017-10-19T11:56:40.653Z,16.49
2017-10-19T11:57:53.252Z,16.41
2017-10-19T11:59:05.836Z,16.43
2017-10-19T12:00:18.096Z,16.49
2017-10-19T12:01:30.361Z,16.43
2017-10-19T12:02:42.648Z,16.41
2017-10-19T12:03:54.894Z,16.39
2017-10-19T12:05:06.502Z,16.4
2017-10-19T12:06:18.472Z,16.37
2017-10-19T12:07:31.056Z,16.34
2017-10-19T12:08:43.311Z,16.34
2017-10-19T12:09:55.880Z,16.29
2017-10-19T12:11:08.475Z,16.29
2017-10-19T12:12:20.746Z,16.39
2017-10-19T12:13:32.996Z,16.34
2017-10-19T12:14:45.581Z,16.26
2017-10-19T12:15:58.175Z,16.29
2017-10-19T12:17:09.807Z,16.26
2017-10-19T12:18:22.073Z,16.18
2017-10-19T12:19:34.646Z,16.22
2017-10-19T12:20:46.591Z,16.17
2017-10-19T12:21:58.838Z,16.17
2017-10-19T12:23:11.087Z,16.12
2017-10-19T12:24:23.346Z,16.18
2017-10-19T12:25:35.599Z,16.1
2017-10-19T12:26:48.170Z,16.16
2017-10-19T12:28:00.740Z,16.12
2017-10-19T12:29:13.311Z,16.09
2017-10-19T12:30:25.883Z,16.17
2017-10-19T12:31:38.152Z,16.1
2017-10-19T12:32:50.405Z,16.1
2017-10-19T12:34:03.011Z,16.08
2017-10-19T12:35:14.939Z,16.02
2017-10-19T12:36:27.185Z,16.02
2017-10-19T12:37:39.756Z,16.02
2017-10-19T12:38:52.001Z,16.03
2017-10-19T12:40:04.274Z,16.02
2017-10-19T12:41:16.868Z,16.03
2017-10-19T12:42:29.113Z,15.99
2017-10-19T12:43:41.684Z,15.83
2017-10-19T12:44:53.630Z,15.9
2017-10-19T12:46:05.549Z,15.83
2017-10-19T12:47:18.121Z,15.96
2017-10-19T12:48:30.709Z,15.85
2017-10-19T12:49:42.979Z,16.02
2017-10-19T12:50:55.557Z,15.91
2017-10-19T12:52:07.806Z,15.91
2017-10-19T12:53:20.373Z,15.96
2017-10-19T12:54:32.619Z,15.98
2017-10-19T12:55:45.207Z,16.03
2017-10-19T12:56:57.153Z,16.03
2017-10-19T12:58:09.406Z,15.9
2017-10-19T12:59:21.651Z,15.96
2017-10-19T13:00:33.915Z,15.91
2017-10-19T13:01:46.511Z,15.96
2017-10-19T13:02:59.089Z,16
2017-10-19T13:04:11.335Z,15.98
2017-10-19T13:05:23.928Z,15.92
2017-10-19T13:06:36.201Z,16.09
2017-10-19T13:07:48.448Z,16.05
2017-10-19T13:09:01.045Z,15.99
2017-10-19T13:10:13.612Z,15.98
2017-10-19T13:11:25.861Z,16.05
2017-10-19T13:12:38.129Z,16.02
2017-10-19T13:13:50.374Z,16.05
2017-10-19T13:15:02.320Z,16.05
2017-10-19T13:16:14.891Z,16.05
2017-10-19T13:17:27.462Z,16.12
2017-10-19T13:18:39.707Z,16.12
2017-10-19T13:19:51.970Z,16.03
2017-10-19T13:21:04.249Z,16
2017-10-19T13:22:16.520Z,15.98
2017-10-19T13:23:28.764Z,15.91
2017-10-19T13:24:41.361Z,15.92
2017-10-19T13:25:53.957Z,15.94
2017-10-19T13:27:06.201Z,15.91
2017-10-19T13:28:18.447Z,15.9
2017-10-19T13:29:30.710Z,15.78
2017-10-19T13:30:43.288Z,15.75
2017-10-19T13:31:55.535Z,15.7
2017-10-19T13:33:07.805Z,15.66
2017-10-19T13:34:20.401Z,15.57
2017-10-19T13:35:32.027Z,15.65
2017-10-19T13:36:44.610Z,15.54
2017-10-19T13:37:56.854Z,15.52
2017-10-19T13:39:09.108Z,15.6
2017-10-19T13:40:21.354Z,15.59
2017-10-19T13:41:33.600Z,15.6
2017-10-19T13:42:45.544Z,15.48
2017-10-19T13:43:58.109Z,15.51
2017-10-19T13:45:10.373Z,15.52
2017-10-19T13:46:22.931Z,15.44
2017-10-19T13:47:35.527Z,15.3
2017-10-19T13:48:47.801Z,15.33
2017-10-19T13:50:00.369Z,15.27
2017-10-19T13:51:12.640Z,15.33
2017-10-19T13:52:24.885Z,15.26
2017-10-19T13:53:36.823Z,15.25
2017-10-19T13:54:49.053Z,15.36
2017-10-19T13:56:00.996Z,15.36
2017-10-19T13:57:13.586Z,15.3
2017-10-19T13:58:26.088Z,15.3
2017-10-19T13:59:38.037Z,15.33
2017-10-19T14:00:50.305Z,15.3
2017-10-19T14:02:01.927Z,15.3
2017-10-19T14:03:14.198Z,15.27
2017-10-19T14:04:26.143Z,15.27
2017-10-19T14:05:38.388Z,15.14
2017-10-19T14:06:50.633Z,15.17
2017-10-19T14:08:03.204Z,15.23
2017-10-19T14:09:15.450Z,15.23
2017-10-19T14:10:28.027Z,15.18
2017-10-19T14:11:40.594Z,15.08
2017-10-19T14:12:52.837Z,15.11
2017-10-19T14:14:05.408Z,15.08
2017-10-19T14:15:17.352Z,15.05
2017-10-19T14:16:29.598Z,15.11
2017-10-19T14:17:42.170Z,15.05
2017-10-19T14:18:54.107Z,15.02
2017-10-19T14:20:06.361Z,15.05
2017-10-19T14:21:18.610Z,14.99
2017-10-19T14:22:31.179Z,15.04
2017-10-19T14:23:43.765Z,15.02
2017-10-19T14:24:56.018Z,15.04
2017-10-19T14:26:07.638Z,15
2017-10-19T14:27:19.259Z,14.97
2017-10-19T14:28:31.864Z,14.99
2017-10-19T14:29:44.427Z,14.93
2017-10-19T14:30:56.671Z,14.93
2017-10-19T14:32:09.242Z,14.93
2017-10-19T14:33:21.489Z,14.89
2017-10-19T14:34:33.413Z,14.9
2017-10-19T14:35:45.654Z,14.87
2017-10-19T14:36:58.224Z,14.74
2017-10-19T14:38:10.146Z,14.81
2017-10-19T14:39:22.742Z,14.74
2017-10-19T14:40:34.985Z,14.87
2017-10-19T14:41:46.949Z,14.79
2017-10-19T14:42:59.529Z,14.78
2017-10-19T14:44:11.773Z,14.67
2017-10-19T14:45:24.344Z,14.67
2017-10-19T14:46:35.941Z,14.67
2017-10-19T14:47:48.185Z,14.62
2017-10-19T14:49:00.431Z,14.53
2017-10-19T14:50:12.376Z,14.55
2017-10-19T14:51:24.948Z,14.58
2017-10-19T14:52:37.194Z,14.56
2017-10-19T14:53:48.494Z,14.55
2017-10-19T14:55:00.737Z,14.49
2017-10-19T14:56:13.306Z,14.36
2017-10-19T14:57:25.569Z,14.43
2017-10-19T14:58:37.496Z,14.45
2017-10-19T14:59:49.743Z,14.4
2017-10-19T15:01:01.987Z,14.41
2017-10-19T15:02:13.925Z,14.48
2017-10-19T15:03:25.530Z,14.48
2017-10-19T15:04:38.098Z,14.44
2017-10-19T15:05:50.349Z,14.4
2017-10-19T15:07:02.916Z,14.41
2017-10-19T15:08:14.861Z,14.4
2017-10-19T15:09:27.433Z,14.31
2017-10-19T15:10:40.029Z,14.23
2017-10-19T15:11:51.975Z,14.3
2017-10-19T15:13:03.920Z,14.26
2017-10-19T15:14:16.490Z,14.33
2017-10-19T15:15:29.082Z,14.23
2017-10-19T15:16:41.331Z,14.18
2017-10-19T15:17:53.903Z,14.23
2017-10-19T15:19:05.543Z,14.11
2017-10-19T15:20:17.468Z,14.16
2017-10-19T15:21:29.412Z,14.2
2017-10-19T15:22:41.659Z,14.11
2017-10-19T15:23:54.247Z,14.07
2017-10-19T15:25:06.177Z,14.12
2017-10-19T15:26:18.746Z,14.05
2017-10-19T15:27:31.345Z,14
2017-10-19T15:28:43.913Z,14.03
2017-10-19T15:29:56.484Z,13.98
2017-10-19T15:31:08.761Z,13.95
2017-10-19T15:32:21.000Z,13.86
2017-10-19T15:33:33.245Z,13.93
2017-10-19T15:34:45.816Z,13.85
2017-10-19T15:35:58.064Z,13.94
2017-10-19T15:37:10.307Z,13.91
2017-10-19T15:38:22.245Z,13.82
2017-10-19T15:39:34.173Z,13.79
2017-10-19T15:40:46.444Z,13.83
2017-10-19T15:41:58.066Z,13.68
2017-10-19T15:43:10.311Z,13.62
2017-10-19T15:44:22.556Z,13.64
2017-10-19T15:45:34.476Z,13.55
2017-10-19T15:46:46.722Z,13.54